Time;durP1;ratioP1;P1;durP2;ratioP2;P2;SDS_P1;SDS_P2;PMS_P1;PMS_P2;Temp;Humidity;BMP_temperature;BMP_pressure;BME280_temperature;BME280_humidity;BME280_pressure;Samples;Min_cycle;Max_cycle;Signal;HPM_P1;HPM_P2
2021/01/10 00:00:43;;;;;;;13.03;11.45;;;;;;;0.44;69.03;98800.86;1828702;78;21244;-65
2021/01/10 00:03:15;;;;;;;13.45;11.10;;;;;;;0.43;69.07;98793.40;1828555;78;20987;-63
2021/01/10 00:05:43;;;;;;;14.35;11.78;;;;;;;0.42;69.18;98800.04;1828595;78;20923;-65
2021/01/10 00:08:10;;;;;;;14.35;11.68;;;;;;;0.41;69.08;98806.22;1828587;78;20970;-63
2021/01/10 00:10:38;;;;;;;14.98;11.75;;;;;;;0.41;69.27;98814.14;1828737;78;21007;-65
2021/01/10 00:13:06;;;;;;;16.48;12.10;;;;;;;0.42;69.30;98814.57;1828678;78;21240;-64
2021/01/10 00:15:34;;;;;;;16.97;12.28;;;;;;;0.39;69.38;98813.31;1820746;78;20943;-63
2021/01/10 00:18:05;;;;;;;12.80;11.20;;;;;;;0.39;69.33;98808.03;1814705;79;20928;-65
2021/01/10 00:20:33;;;;;;;13.78;11.25;;;;;;;0.37;69.15;98815.13;1814864;79;20924;-64
2021/01/10 00:23:02;;;;;;;14.45;11.68;;;;;;;0.35;69.06;98815.16;1814849;79;20912;-64
2021/01/10 00:25:31;;;;;;;13.70;11.15;;;;;;;0.35;69.21;98812.06;1814821;79;21317;-65
2021/01/10 00:28:00;;;;;;;13.83;11.33;;;;;;;0.34;69.15;98816.91;1814663;79;20932;-65
2021/01/10 00:30:29;;;;;;;12.98;11.30;;;;;;;0.34;69.12;98816.05;1814728;79;21433;-64
2021/01/10 00:32:56;;;;;;;14.23;11.45;;;;;;;0.32;69.30;98813.91;1814818;79;20980;-64
2021/01/10 00:35:25;;;;;;;15.23;12.03;;;;;;;0.32;69.27;98820.05;1814850;79;20880;-63
2021/01/10 00:37:55;;;;;;;13.53;11.40;;;;;;;0.31;69.50;98820.08;1814778;79;21333;-64
2021/01/10 00:40:24;;;;;;;13.93;12.43;;;;;;;0.31;69.56;98816.98;1814740;79;20940;-63
2021/01/10 00:42:53;;;;;;;13.22;10.55;;;;;;;0.30;69.58;98816.58;1814852;79;20920;-65
2021/01/10 00:45:21;;;;;;;15.55;12.47;;;;;;;0.28;69.54;98823.65;1814673;78;20980;-63
2021/01/10 00:47:53;;;;;;;16.52;12.35;;;;;;;0.27;69.38;98828.53;1813965;79;21070;-64
2021/01/10 00:50:23;;;;;;;16.82;13.58;;;;;;;0.25;69.43;98830.78;1814813;79;21493;-64
2021/01/10 00:52:50;;;;;;;16.02;12.78;;;;;;;0.25;69.56;98836.06;1814713;79;21596;-63
2021/01/10 00:55:18;;;;;;;15.45;12.15;;;;;;;0.23;69.55;98828.63;1814759;79;21004;-64
2021/01/10 00:57:47;;;;;;;15.20;10.70;;;;;;;0.22;69.70;98832.16;1814642;79;21018;-65
2021/01/10 01:00:17;;;;;;;15.75;11.40;;;;;;;0.21;69.50;98833.08;1814851;79;20896;-65
2021/01/10 01:02:48;;;;;;;15.00;11.53;;;;;;;0.19;69.16;98835.75;1814957;79;21353;-64
2021/01/10 01:05:19;;;;;;;13.95;11.50;;;;;;;0.18;69.24;98840.61;1814579;79;21449;-64
2021/01/10 01:07:47;;;;;;;12.80;10.15;;;;;;;0.15;69.28;98841.99;1814696;79;20873;-64
2021/01/10 01:10:14;;;;;;;15.10;11.65;;;;;;;0.13;69.18;98839.38;1814792;78;20908;-64
2021/01/10 01:12:43;;;;;;;15.08;10.95;;;;;;;0.10;68.95;98841.22;1814946;79;20908;-64
2021/01/10 01:15:12;;;;;;;14.05;11.50;;;;;;;0.07;68.82;98839.95;1818709;78;21244;-65
2021/01/10 01:17:39;;;;;;;13.30;11.35;;;;;;;0.05;68.95;98843.06;1828771;78;21444;-64
2021/01/10 01:20:10;;;;;;;14.90;10.88;;;;;;;0.03;68.74;98836.95;1828762;78;20978;-65
2021/01/10 01:22:38;;;;;;;13.60;10.58;;;;;;;0.03;68.91;98846.19;1828757;78;20995;-65
2021/01/10 01:25:09;;;;;;;13.40;10.85;;;;;;;0.01;69.02;98842.26;1828777;78;21469;-64
2021/01/10 01:27:37;;;;;;;18.10;11.75;;;;;;;-0.01;68.72;98846.25;1828846;78;22101;-64
2021/01/10 01:30:06;;;;;;;10.93;9.65;;;;;;;-0.04;68.61;98845.45;1828717;78;20888;-64
2021/01/10 01:32:37;;;;;;;12.60;10.08;;;;;;;-0.08;68.56;98851.25;1828808;78;20924;-65
2021/01/10 01:35:06;;;;;;;12.40;9.88;;;;;;;-0.11;68.68;98855.27;1828796;78;20920;-65
2021/01/10 01:37:35;;;;;;;12.75;8.95;;;;;;;-0.13;68.77;98854.40;1828898;78;21338;-65
2021/01/10 01:40:05;;;;;;;10.43;9.10;;;;;;;-0.17;68.61;98859.77;1828717;78;21360;-65
2021/01/10 01:42:34;;;;;;;10.63;8.80;;;;;;;-0.21;68.74;98865.56;1828850;78;21349;-64
2021/01/10 01:45:07;;;;;;;12.95;9.25;;;;;;;-0.24;68.81;98868.25;1828779;78;21002;-64
2021/01/10 01:47:34;;;;;;;12.33;9.80;;;;;;;-0.27;68.97;98870.95;1829022;78;20928;-63
2021/01/10 01:50:05;;;;;;;12.65;9.70;;;;;;;-0.34;68.85;98862.28;1828791;78;20982;-64
2021/01/10 01:52:33;;;;;;;9.78;8.78;;;;;;;-0.41;69.08;98869.44;1828702;78;21315;-64
2021/01/10 01:55:04;;;;;;;10.32;9.18;;;;;;;-0.44;69.20;98872.13;1828776;78;20988;-64
2021/01/10 01:57:32;;;;;;;13.22;11.20;;;;;;;-0.49;69.32;98871.34;1828865;78;21000;-64
2021/01/10 02:00:00;;;;;;;11.88;10.50;;;;;;;-0.54;69.55;98869.21;1828728;78;20995;-64
2021/01/10 02:02:29;;;;;;;14.87;12.25;;;;;;;-0.57;69.79;98875.86;1828789;78;21002;-64
2021/01/10 02:05:13;;;;;;;14.58;11.68;;;;;;;-0.62;70.00;98877.25;1828685;78;21394;-64
2021/01/10 02:08:02;;;;;;;13.45;12.05;;;;;;;-0.66;70.23;98874.69;1828723;78;20975;-64
2021/01/10 02:10:37;;;;;;;13.43;12.03;;;;;;;-0.69;70.58;98883.97;1828562;78;20983;-64
2021/01/10 02:13:10;;;;;;;13.78;12.33;;;;;;;-0.75;70.95;98883.18;1828795;78;20910;-65
2021/01/10 02:15:38;;;;;;;17.05;14.40;;;;;;;-0.76;71.18;98885.84;1820978;78;21090;-65
2021/01/10 02:18:07;;;;;;;13.75;12.35;;;;;;;-0.81;71.44;98878.45;1805760;79;21134;-65
2021/01/10 02:20:39;;;;;;;17.92;14.35;;;;;;;-0.85;71.64;98884.23;1805673;79;20937;-65
2021/01/10 02:23:20;;;;;;;15.78;13.60;;;;;;;-0.84;71.71;98888.59;1805807;79;20913;-65
2021/01/10 02:25:49;;;;;;;14.40;12.10;;;;;;;-0.85;71.84;98886.88;1805789;79;21008;-64
2021/01/10 02:28:22;;;;;;;18.17;13.88;;;;;;;-0.85;72.00;98892.16;1805771;79;20917;-65
2021/01/10 02:30:51;;;;;;;;;;;;;;;-0.83;72.23;98892.98;1808433;79;21189;-63
2021/01/10 02:33:24;;;;;;;15.40;11.88;;;;;;;-0.81;72.31;98904.84;1805696;79;20109;-64
2021/01/10 02:35:53;;;;;;;14.07;12.00;;;;;;;-0.83;72.47;98900.90;1805892;79;20913;-63
2021/01/10 02:38:58;;;;;;;13.53;11.08;;;;;;;-0.80;72.42;98894.72;1805648;79;20928;-64
2021/01/10 02:41:48;;;;;;;15.13;12.53;;;;;;;-0.78;72.45;98901.69;1805768;79;20898;-64
2021/01/10 02:44:23;;;;;;;12.78;9.83;;;;;;;-0.74;72.41;98906.03;1805841;78;21376;-64
2021/01/10 02:46:52;;;;;;;14.25;11.83;;;;;;;-0.71;72.48;98906.88;1805644;79;21440;-65
2021/01/10 02:49:20;;;;;;;14.25;11.03;;;;;;;-0.69;72.41;98905.08;1805691;79;20964;-64
2021/01/10 02:51:48;;;;;;;14.40;11.97;;;;;;;-0.68;72.37;98908.15;1805716;79;21027;-65
2021/01/10 02:54:20;;;;;;;14.60;11.68;;;;;;;-0.65;72.33;98896.23;1805896;79;21306;-65
2021/01/10 02:57:03;;;;;;;14.83;12.05;;;;;;;-0.63;72.22;98907.62;1805805;79;21189;-65
2021/01/10 02:59:35;;;;;;;15.20;12.15;;;;;;;-0.60;72.11;98902.30;1805617;79;20983;-65
2021/01/10 03:02:03;;;;;;;13.30;10.82;;;;;;;-0.58;72.05;98908.44;1805134;79;20937;-65
2021/01/10 03:04:31;;;;;;;14.10;12.15;;;;;;;-0.54;72.07;98908.80;1805708;79;20984;-65
2021/01/10 03:07:00;;;;;;;14.53;10.82;;;;;;;-0.52;71.99;98910.98;1805716;79;20979;-65
2021/01/10 03:09:29;;;;;;;15.00;11.78;;;;;;;-0.50;71.70;98906.54;1752953;79;21377;-65
2021/01/10 03:11:59;;;;;;;11.00;9.65;;;;;;;-0.48;71.58;98910.02;1752951;79;20881;-64
2021/01/10 03:14:27;;;;;;;12.20;10.48;;;;;;;-0.46;71.22;98915.27;1779680;79;20884;-65
2021/01/10 03:16:54;;;;;;;11.75;10.30;;;;;;;-0.43;71.13;98916.54;1805650;79;20901;-65
2021/01/10 03:19:21;;;;;;;11.90;10.45;;;;;;;-0.43;71.16;98908.16;1805730;79;20952;-65
2021/01/10 03:21:50;;;;;;;13.80;11.22;;;;;;;-0.42;71.14;98909.91;1805862;79;22357;-65
2021/01/10 03:24:17;;;;;;;12.20;10.43;;;;;;;-0.39;71.11;98909.86;1805656;79;20944;-65
2021/01/10 03:26:46;;;;;;;13.85;11.70;;;;;;;-0.39;71.02;98894.03;1805714;79;20917;-65
2021/01/10 03:29:14;;;;;;;15.58;11.85;;;;;;;-0.36;70.95;98891.80;1805620;79;20929;-65
2021/01/10 03:31:42;;;;;;;11.53;10.35;;;;;;;-0.33;70.87;98890.85;1805766;79;20972;-64
2021/01/10 03:34:10;;;;;;;13.78;10.80;;;;;;;-0.33;70.87;98893.48;1805695;79;22050;-65
2021/01/10 03:36:39;;;;;;;13.58;11.80;;;;;;;-0.32;70.70;98893.47;1805611;79;20948;-65
2021/01/10 03:39:07;;;;;;;13.50;11.95;;;;;;;-0.29;70.70;98888.59;1805654;79;20912;-65
2021/01/10 03:41:35;;;;;;;13.72;11.38;;;;;;;-0.28;70.96;98884.61;1805681;79;20916;-65
2021/01/10 03:44:03;;;;;;;13.72;11.68;;;;;;;-0.26;70.96;98880.63;1805748;79;20871;-65
2021/01/10 03:46:30;;;;;;;14.35;11.22;;;;;;;-0.24;70.76;98886.73;1805446;79;21200;-65
2021/01/10 03:48:58;;;;;;;13.28;10.48;;;;;;;-0.24;70.70;98876.17;1805680;79;21051;-65
2021/01/10 03:51:29;;;;;;;12.70;10.80;;;;;;;-0.24;70.75;98875.72;1805673;79;21338;-65
2021/01/10 03:53:56;;;;;;;11.50;10.32;;;;;;;-0.22;70.49;98890.20;1805732;79;20909;-65
2021/01/10 03:56:24;;;;;;;13.22;10.80;;;;;;;-0.22;70.47;98890.20;1805709;79;20905;-65
2021/01/10 03:58:51;;;;;;;13.00;11.10;;;;;;;-0.22;70.45;98890.20;1805689;79;21394;-65
2021/01/10 04:01:19;;;;;;;13.85;10.82;;;;;;;-0.22;70.37;98890.20;1805621;79;21552;-65
2021/01/10 04:03:46;;;;;;;12.03;10.85;;;;;;;-0.24;70.38;98889.38;1805658;79;20905;-64
2021/01/10 04:06:15;;;;;;;12.50;11.10;;;;;;;-0.24;70.26;98892.02;1805627;79;20909;-64
2021/01/10 04:08:45;;;;;;;12.88;11.18;;;;;;;-0.28;70.07;98885.92;1805660;79;20923;-65
2021/01/10 04:11:14;;;;;;;13.15;10.60;;;;;;;-0.29;70.14;98899.16;1805732;79;21409;-64
2021/01/10 04:13:42;;;;;;;11.60;9.93;;;;;;;-0.32;70.08;98899.20;1805506;79;20976;-65
2021/01/10 04:16:11;;;;;;;13.08;11.73;;;;;;;-0.33;70.17;98904.05;1805609;78;20945;-64
2021/01/10 04:18:39;;;;;;;11.28;10.03;;;;;;;-0.37;70.16;98902.78;1805625;79;20980;-65
2021/01/10 04:21:07;;;;;;;11.90;10.43;;;;;;;-0.38;70.07;98907.66;1805708;79;20921;-64
2021/01/10 04:23:34;;;;;;;11.80;10.23;;;;;;;-0.39;70.09;98909.86;1805709;79;21367;-65
2021/01/10 04:26:05;;;;;;;11.50;9.60;;;;;;;-0.38;70.12;98908.98;1805593;79;20925;-65
2021/01/10 04:28:33;;;;;;;10.65;8.80;;;;;;;-0.38;70.14;98903.70;1805689;79;20873;-64
2021/01/10 04:31:01;;;;;;;11.63;10.25;;;;;;;-0.38;70.00;98910.30;1805627;79;20917;-65
2021/01/10 04:33:29;;;;;;;10.82;9.63;;;;;;;-0.38;69.81;98908.98;1805682;79;20976;-65
2021/01/10 04:35:58;;;;;;;11.12;9.65;;;;;;;-0.38;69.91;98903.70;1805772;79;22289;-64
2021/01/10 04:38:25;;;;;;;9.10;7.97;;;;;;;-0.38;69.85;98901.06;1805557;79;20916;-65
2021/01/10 04:40:53;;;;;;;10.38;9.30;;;;;;;-0.40;69.73;98913.39;1805623;79;20913;-65
2021/01/10 04:43:21;;;;;;;11.30;10.20;;;;;;;-0.41;69.53;98902.86;1805646;79;20995;-65
2021/01/10 04:45:49;;;;;;;11.12;10.03;;;;;;;-0.40;69.57;98906.79;1805666;79;20984;-63
2021/01/10 04:48:17;;;;;;;11.73;10.23;;;;;;;-0.41;69.68;98907.71;1805773;79;21277;-63
2021/01/10 04:50:45;;;;;;;11.50;10.10;;;;;;;-0.41;69.51;98909.03;1805803;79;20917;-63
2021/01/10 04:53:13;;;;;;;12.50;10.18;;;;;;;-0.43;69.23;98906.84;1805801;79;20924;-63
2021/01/10 04:55:41;;;;;;;10.45;8.80;;;;;;;-0.44;69.40;98902.91;1805767;79;20929;-64
2021/01/10 04:58:09;;;;;;;9.28;8.28;;;;;;;-0.46;68.94;98906.89;1805842;79;21012;-64
2021/01/10 05:00:36;;;;;;;13.62;9.88;;;;;;;-0.47;69.05;98909.13;1805807;79;21272;-63
2021/01/10 05:03:13;;;;;;;11.60;8.48;;;;;;;-0.47;69.11;98913.09;1805731;79;20900;-64
2021/01/10 05:05:41;;;;;;;10.88;8.85;;;;;;;-0.47;69.17;98917.05;1805878;79;20964;-65
2021/01/10 05:08:10;;;;;;;10.18;9.08;;;;;;;-0.47;69.21;98919.69;1805674;79;22185;-66
2021/01/10 05:10:41;;;;;;;11.03;9.83;;;;;;;-0.48;69.10;98921.89;1805863;79;20924;-63
2021/01/10 05:13:09;;;;;;;12.33;9.65;;;;;;;-0.47;69.15;98922.33;1805817;79;21364;-65
2021/01/10 05:15:36;;;;;;;10.88;9.25;;;;;;;-0.46;69.27;98927.14;1805796;79;20928;-63
2021/01/10 05:18:05;;;;;;;10.38;8.98;;;;;;;-0.46;69.38;98929.33;1805758;77;20913;-64
2021/01/10 05:20:33;;;;;;;12.45;9.40;;;;;;;-0.46;69.34;98929.33;1805677;79;21385;-63
2021/01/10 05:23:01;;;;;;;10.80;8.80;;;;;;;-0.45;69.35;98923.16;1805852;79;20984;-63
2021/01/10 05:25:29;;;;;;;11.78;9.35;;;;;;;-0.44;69.22;98927.55;1805827;79;21345;-64
2021/01/10 05:27:57;;;;;;;11.10;9.98;;;;;;;-0.43;69.25;98935.88;1805743;79;20928;-63
2021/01/10 05:30:28;;;;;;;10.32;9.20;;;;;;;-0.43;69.49;98933.23;1805826;79;20925;-64
2021/01/10 05:33:06;;;;;;;11.25;10.03;;;;;;;-0.43;69.34;98931.91;1805818;79;20913;-64
2021/01/10 05:35:52;;;;;;;11.60;10.35;;;;;;;-0.39;69.45;98937.58;1805830;79;20917;-64
2021/01/10 05:38:33;;;;;;;10.85;9.30;;;;;;;-0.38;69.33;98938.44;1805328;79;21147;-64
2021/01/10 05:41:08;;;;;;;13.03;9.43;;;;;;;-0.38;69.34;98941.97;1805948;79;23827;-64
2021/01/10 05:43:35;;;;;;;13.22;9.88;;;;;;;-0.34;69.42;98949.38;1806003;79;20909;-65
2021/01/10 05:46:16;;;;;;;12.35;10.00;;;;;;;-0.33;69.32;98946.28;1805761;79;20869;-64
2021/01/10 05:48:44;;;;;;;11.18;9.73;;;;;;;-0.32;69.34;98946.72;1805755;79;20912;-64
2021/01/10 05:51:12;;;;;;;12.70;10.35;;;;;;;-0.31;69.35;98943.19;1805854;79;21321;-64
2021/01/10 05:53:41;;;;;;;11.73;10.00;;;;;;;-0.29;69.35;98951.95;1805633;79;20992;-64
2021/01/10 05:56:10;;;;;;;11.55;9.00;;;;;;;-0.29;69.09;98946.67;1805792;79;20936;-65
2021/01/10 05:58:39;;;;;;;14.10;10.48;;;;;;;-0.26;69.21;98954.54;1805678;79;21007;-64
2021/01/10 06:01:12;;;;;;;10.30;8.65;;;;;;;-0.25;69.01;98956.30;1805762;79;21338;-64
2021/01/10 06:03:40;;;;;;;12.43;10.40;;;;;;;-0.25;68.90;98958.93;1805795;79;21363;-65
2021/01/10 06:06:09;;;;;;;11.73;9.63;;;;;;;-0.25;69.00;98961.57;1805751;79;20912;-64
2021/01/10 06:08:38;;;;;;;12.30;9.20;;;;;;;-0.22;69.12;98966.77;1805719;78;20920;-65
2021/01/10 06:11:22;;;;;;;15.58;11.78;;;;;;;-0.22;68.96;98965.02;1805792;79;20912;-64
2021/01/10 06:14:05;;;;;;;12.80;10.58;;;;;;;-0.18;69.01;98967.16;1837021;78;28000;-64
2021/01/10 06:16:36;;;;;;;11.83;10.10;;;;;;;-0.21;69.16;98973.80;1809643;79;20916;-64
2021/01/10 06:19:06;;;;;;;13.25;11.38;;;;;;;-0.21;68.88;98979.09;1809567;79;21363;-64
2021/01/10 06:21:34;;;;;;;16.42;13.00;;;;;;;-0.22;68.88;98982.61;1809620;79;20924;-64
2021/01/10 06:24:05;;;;;;;15.05;12.13;;;;;;;-0.21;69.18;98980.41;1809681;79;20968;-64
2021/01/10 06:26:34;;;;;;;13.55;10.60;;;;;;;-0.21;69.27;98979.09;1809577;79;20976;-64
2021/01/10 06:29:08;;;;;;;14.20;11.28;;;;;;;-0.20;69.11;98976.88;1809487;79;20920;-64
2021/01/10 06:31:39;;;;;;;10.90;9.35;;;;;;;-0.20;69.26;98982.16;1809607;79;21188;-64
2021/01/10 06:34:10;;;;;;;14.40;11.08;;;;;;;-0.19;69.23;98983.88;1753626;79;21358;-63
2021/01/10 06:36:46;;;;;;;11.00;9.88;;;;;;;-0.22;69.33;98975.59;1809687;79;20892;-63
2021/01/10 06:39:18;;;;;;;11.88;10.60;;;;;;;-0.22;69.43;98983.50;1809530;79;20912;-63
2021/01/10 06:42:11;;;;;;;12.37;11.00;;;;;;;-0.21;69.22;98987.01;1809605;79;21327;-63
2021/01/10 06:44:48;;;;;;;;;;;;;;;-0.22;68.74;98986.14;1812294;79;21362;-63
2021/01/10 06:47:22;;;;;;;11.78;9.58;;;;;;;-0.25;68.45;98985.33;1809627;79;20459;-63
2021/01/10 06:49:52;;;;;;;11.10;8.95;;;;;;;-0.26;68.60;98988.86;1809567;79;20999;-63
2021/01/10 06:52:22;;;;;;;11.05;9.20;;;;;;;-0.26;68.49;98988.86;1809518;79;21000;-64
2021/01/10 06:54:53;;;;;;;10.45;9.00;;;;;;;-0.26;68.46;98987.08;1809574;79;20968;-64
2021/01/10 06:57:22;;;;;;;13.35;9.88;;;;;;;-0.28;68.34;98985.38;1809660;79;22274;-64
2021/01/10 07:00:08;;;;;;;10.78;8.73;;;;;;;-0.28;68.40;98989.34;1731349;79;20968;-64
2021/01/10 07:03:07;;;;;;;11.90;9.83;;;;;;;-0.28;68.19;98983.60;1808738;79;20980;-64
2021/01/10 07:06:02;;;;;;;11.83;9.78;;;;;;;-0.29;68.11;98983.62;1809556;79;21338;-63
2021/01/10 07:08:35;;;;;;;;;;;;;;;-0.29;68.18;98988.91;1812215;79;20999;-64
2021/01/10 07:11:26;;;;;;;12.47;10.10;;;;;;;-0.29;68.28;98991.55;1809434;79;21196;-63
2021/01/10 07:14:04;;;;;;;9.43;7.92;;;;;;;-0.29;68.50;99004.75;1814320;79;21011;-64
2021/01/10 07:16:34;;;;;;;12.93;10.55;;;;;;;-0.30;68.36;99002.98;1815887;79;20975;-63
2021/01/10 07:19:11;;;;;;;11.93;8.88;;;;;;;-0.28;68.63;99003.86;1816025;78;20968;-64
2021/01/10 07:21:43;;;;;;;11.80;9.90;;;;;;;-0.28;68.35;98998.58;1816067;79;20979;-63
2021/01/10 07:24:20;;;;;;;11.97;9.05;;;;;;;-0.26;68.14;99005.56;1815554;78;21350;-64
2021/01/10 07:26:56;;;;;;;10.68;9.03;;;;;;;-0.26;67.93;99004.70;1815500;79;20932;-63
2021/01/10 07:29:28;;;;;;;9.28;8.23;;;;;;;-0.24;67.97;99003.75;1815122;78;20889;-63
2021/01/10 07:32:10;;;;;;;12.75;7.85;;;;;;;-0.22;67.48;99006.38;1814958;79;20900;-63
2021/01/10 07:34:51;;;;;;;10.55;8.70;;;;;;;-0.22;67.05;99016.94;1815282;79;21031;-65
2021/01/10 07:37:29;;;;;;;10.25;9.00;;;;;;;-0.20;67.39;99017.80;1815158;79;21369;-64
2021/01/10 07:40:07;;;;;;;10.15;8.78;;;;;;;-0.19;67.31;99016.45;1815067;79;20876;-64
2021/01/10 07:42:37;;;;;;;10.18;8.50;;;;;;;-0.17;67.03;99013.80;1815154;79;20976;-63
2021/01/10 07:45:20;;;;;;;10.40;7.42;;;;;;;-0.17;66.68;99021.72;1815458;79;20928;-63
2021/01/10 07:47:51;;;;;;;8.70;7.17;;;;;;;-0.16;66.55;99024.76;1815588;78;20920;-63
2021/01/10 07:50:23;;;;;;;9.60;7.67;;;;;;;-0.19;65.99;99027.45;1815208;79;21414;-63
2021/01/10 07:52:58;;;;;;;9.30;7.60;;;;;;;-0.22;65.94;99024.43;1815606;79;20944;-63
2021/01/10 07:55:28;;;;;;;8.23;6.33;;;;;;;-0.23;65.92;99018.71;1815379;79;20885;-63
2021/01/10 07:58:06;;;;;;;12.85;9.15;;;;;;;-0.22;65.90;99028.81;1815184;79;21905;-64
2021/01/10 08:00:50;;;;;;;8.13;6.85;;;;;;;-0.22;65.87;99034.09;1815336;78;20901;-62
2021/01/10 08:03:26;;;;;;;8.90;7.87;;;;;;;-0.22;65.76;99033.67;1813769;79;21447;-63
2021/01/10 08:06:05;;;;;;;10.78;7.30;;;;;;;-0.23;65.81;99038.97;1815216;79;20995;-64
2021/01/10 08:08:46;;;;;;;9.80;8.35;;;;;;;-0.23;65.61;99036.33;1815195;79;20988;-64
2021/01/10 08:11:32;;;;;;;10.40;8.70;;;;;;;-0.24;65.85;99034.58;1815215;78;20912;-65
2021/01/10 08:13:59;;;;;;;12.28;8.93;;;;;;;-0.22;66.14;99035.41;1795849;79;21044;-64
2021/01/10 08:16:32;;;;;;;12.50;9.33;;;;;;;-0.22;66.08;99036.31;1814977;79;22183;-63
2021/01/10 08:19:04;;;;;;;10.48;8.80;;;;;;;-0.16;66.14;99043.24;1815106;79;20979;-63
2021/01/10 08:21:32;;;;;;;14.65;9.95;;;;;;;-0.14;66.34;99040.16;1815330;78;21437;-63
2021/01/10 08:24:03;;;;;;;16.30;10.50;;;;;;;-0.14;65.75;99041.47;1814991;79;20971;-64
2021/01/10 08:26:33;;;;;;;17.27;9.78;;;;;;;-0.10;65.78;99044.93;1815005;79;20956;-64
2021/01/10 08:29:02;;;;;;;9.53;7.70;;;;;;;-0.05;66.07;99041.33;1761872;79;22262;-64
2021/01/10 08:31:29;;;;;;;8.08;6.53;;;;;;;-0.01;65.24;99049.61;1814884;79;21186;-64
2021/01/10 08:34:03;;;;;;;8.95;6.53;;;;;;;0.07;65.21;99051.27;1815443;79;20912;-63
2021/01/10 08:36:33;;;;;;;9.53;8.10;;;;;;;0.11;64.36;99046.34;1815362;79;21417;-63
2021/01/10 08:39:09;;;;;;;8.85;7.12;;;;;;;0.16;63.49;99056.40;1815054;79;21003;-64
2021/01/10 08:41:42;;;;;;;10.85;7.65;;;;;;;0.20;63.44;99054.56;1815336;79;21281;-63
2021/01/10 08:44:18;;;;;;;9.85;7.53;;;;;;;0.23;63.55;99050.56;1815401;78;21011;-65
2021/01/10 08:46:50;;;;;;;7.20;6.33;;;;;;;0.27;63.87;99050.48;1815253;79;20908;-63
2021/01/10 08:49:19;;;;;;;9.05;6.90;;;;;;;0.32;62.55;99050.40;1815418;79;20948;-62
2021/01/10 08:51:50;;;;;;;8.78;7.55;;;;;;;0.35;62.90;99053.85;1815487;79;20868;-63
2021/01/10 08:54:22;;;;;;;7.40;5.28;;;;;;;0.40;62.67;99052.91;1815351;79;21192;-64
2021/01/10 08:56:53;;;;;;;7.45;6.17;;;;;;;0.44;62.08;99051.94;1815400;78;21030;-65
2021/01/10 08:59:21;;;;;;;7.05;5.97;;;;;;;0.48;62.23;99053.64;1815517;79;21515;-64
2021/01/10 09:01:48;;;;;;;7.37;5.70;;;;;;;0.50;62.35;99047.87;1815251;79;20925;-63
2021/01/10 09:04:17;;;;;;;7.53;6.55;;;;;;;0.49;61.33;99048.75;1815435;79;20916;-63
2021/01/10 09:07:11;;;;;;;8.60;6.20;;;;;;;0.51;60.93;99043.02;1815409;78;21387;-64
2021/01/10 09:09:42;;;;;;;;;;;;;;;0.51;61.05;99041.69;1817911;79;20892;-62
2021/01/10 09:12:43;;;;;;;8.13;6.03;;;;;;;0.56;61.28;99050.40;1815349;79;20453;-63
2021/01/10 09:15:19;;;;;;;8.18;5.37;;;;;;;0.58;61.54;99052.55;1822792;78;21003;-65
2021/01/10 09:17:57;;;;;;;7.25;5.60;;;;;;;0.65;61.36;99050.70;1822379;78;21485;-63
2021/01/10 09:20:32;;;;;;;8.28;5.22;;;;;;;0.69;61.21;99057.22;1823211;78;21402;-63
2021/01/10 09:23:00;;;;;;;7.03;4.83;;;;;;;0.78;61.84;99046.90;1822823;78;21038;-65
2021/01/10 09:25:31;;;;;;;6.17;4.87;;;;;;;0.82;60.62;99051.67;1768340;78;20920;-63
2021/01/10 09:28:17;;;;;;;6.33;5.17;;;;;;;0.88;60.23;99044.94;1822990;78;20939;-63
2021/01/10 09:30:53;;;;;;;8.05;5.70;;;;;;;0.92;60.34;99047.95;1822858;78;20861;-63
2021/01/10 09:33:33;;;;;;;6.92;6.00;;;;;;;0.94;60.04;99044.82;1823198;78;21149;-63
2021/01/10 09:36:01;;;;;;;9.58;6.17;;;;;;;0.95;59.82;99041.28;1823140;78;20964;-64
2021/01/10 09:38:31;;;;;;;7.60;5.80;;;;;;;1.00;60.16;99039.88;1822835;78;20912;-64
2021/01/10 09:41:07;;;;;;;7.08;6.35;;;;;;;1.04;60.55;99032.27;1823093;78;20900;-65
2021/01/10 09:43:44;;;;;;;7.12;5.53;;;;;;;1.07;60.21;99030.46;1823276;78;20904;-63
2021/01/10 09:46:39;;;;;;;6.65;5.62;;;;;;;1.10;59.61;99024.67;1823051;78;21187;-64
2021/01/10 09:49:16;;;;;;;6.22;5.60;;;;;;;1.08;59.90;99013.66;1823060;78;20888;-63
2021/01/10 09:52:05;;;;;;;6.45;5.12;;;;;;;1.10;58.96;99010.13;1841834;77;28325;-65
2021/01/10 09:54:35;;;;;;;6.92;5.75;;;;;;;1.06;59.08;99012.83;1750662;82;21003;-63
2021/01/10 09:57:16;;;;;;;8.30;5.35;;;;;;;1.05;58.87;99007.11;1781537;80;21176;-65
2021/01/10 09:59:46;;;;;;;7.17;4.75;;;;;;;1.06;59.02;99014.16;1750343;82;21001;-63
2021/01/10 10:02:23;;;;;;;5.80;5.12;;;;;;;1.02;58.82;99016.43;1781475;80;21042;-63
2021/01/10 10:04:53;;;;;;;6.50;4.83;;;;;;;0.99;58.82;99013.84;1750395;82;21569;-64
2021/01/10 10:07:36;;;;;;;6.10;5.08;;;;;;;1.02;58.91;99019.54;1781409;80;20928;-62
2021/01/10 10:10:24;;;;;;;5.95;4.95;;;;;;;0.99;58.54;99008.55;1750554;82;21200;-63
2021/01/10 10:13:11;;;;;;;7.53;5.28;;;;;;;1.00;58.51;99020.03;1781477;80;20940;-62
2021/01/10 10:15:54;;;;;;;7.55;5.75;;;;;;;0.99;58.57;99016.49;1750299;82;20981;-64
2021/01/10 10:18:27;;;;;;;6.40;5.22;;;;;;;1.01;59.27;99019.11;1781302;80;20916;-64
2021/01/10 10:20:56;;;;;;;8.58;5.25;;;;;;;0.99;58.88;99012.52;1750736;82;20953;-66
2021/01/10 10:23:23;;;;;;;6.40;5.28;;;;;;;1.00;58.54;99015.59;1781300;80;21397;-66
2021/01/10 10:25:52;;;;;;;7.67;5.75;;;;;;;1.00;58.73;99024.86;1750531;82;20949;-63
2021/01/10 10:28:20;;;;;;;7.97;5.55;;;;;;;1.02;59.12;99029.66;1781484;80;20937;-63
2021/01/10 10:30:49;;;;;;;7.30;5.60;;;;;;;1.03;59.17;99027.45;1750337;82;20949;-64
2021/01/10 10:33:17;;;;;;;7.40;5.60;;;;;;;1.02;59.19;99015.11;1781455;80;20992;-62
2021/01/10 10:35:45;;;;;;;8.70;5.87;;;;;;;1.02;59.04;99023.05;1750527;82;21323;-64
2021/01/10 10:38:13;;;;;;;8.60;7.00;;;;;;;1.03;58.88;99024.80;1781271;80;20956;-64
2021/01/10 10:40:41;;;;;;;8.25;6.35;;;;;;;1.04;58.76;99020.37;1750532;82;20961;-64
2021/01/10 10:43:08;;;;;;;9.18;6.80;;;;;;;1.01;58.51;99021.33;1781397;80;21796;-64
2021/01/10 10:45:37;;;;;;;8.48;7.20;;;;;;;1.02;58.88;99026.15;1750364;82;21024;-63
2021/01/10 10:48:06;;;;;;;8.40;6.17;;;;;;;1.02;59.34;99020.40;1781426;80;21467;-64
2021/01/10 10:50:35;;;;;;;9.40;6.85;;;;;;;1.02;59.50;99023.05;1746992;81;21388;-64
2021/01/10 10:53:05;;;;;;;8.85;7.30;;;;;;;1.03;59.45;99026.13;1770408;81;20921;-63
2021/01/10 10:55:34;;;;;;;8.18;7.37;;;;;;;1.06;59.55;99028.70;1739885;82;21399;-63
2021/01/10 10:58:01;;;;;;;7.47;6.42;;;;;;;1.07;59.23;99014.58;1770453;81;20988;-64
2021/01/10 11:00:32;;;;;;;9.28;7.15;;;;;;;1.08;59.45;99025.56;1739734;82;20922;-64
2021/01/10 11:03:00;;;;;;;8.45;6.47;;;;;;;1.10;58.87;99022.89;1769965;81;20969;-64
2021/01/10 11:05:28;;;;;;;16.57;8.28;;;;;;;1.12;59.31;99017.56;1739379;82;20994;-63
2021/01/10 11:07:56;;;;;;;8.85;6.75;;;;;;;1.15;59.23;99017.50;1769751;81;21028;-63
2021/01/10 11:10:24;;;;;;;11.10;7.80;;;;;;;1.20;59.18;99019.59;1739464;82;21049;-64
2021/01/10 11:12:51;;;;;;;12.45;7.30;;;;;;;1.25;59.01;99019.06;1769849;81;21206;-64
2021/01/10 11:15:18;;;;;;;10.88;7.55;;;;;;;1.27;58.47;99018.56;1739226;82;20970;-65
2021/01/10 11:17:46;;;;;;;7.70;6.67;;;;;;;1.30;58.69;99019.83;1769928;81;21008;-63
2021/01/10 11:20:15;;;;;;;8.98;6.45;;;;;;;1.31;58.76;99011.42;1739368;82;21033;-63
2021/01/10 11:22:45;;;;;;;7.90;6.70;;;;;;;1.30;58.42;99004.41;1767001;81;21016;-63
2021/01/10 11:25:12;;;;;;;8.43;6.95;;;;;;;1.28;58.51;99009.73;1739370;82;21414;-64
2021/01/10 11:27:40;;;;;;;6.50;5.87;;;;;;;1.27;58.57;99010.63;1769808;81;21401;-64
2021/01/10 11:30:10;;;;;;;9.10;7.10;;;;;;;1.25;58.35;99012.45;1739196;82;20998;-65
2021/01/10 11:32:38;;;;;;;9.05;7.12;;;;;;;1.22;58.11;99016.48;1769931;81;20989;-64
2021/01/10 11:35:07;;;;;;;8.13;6.83;;;;;;;1.20;58.54;99010.33;1739351;82;21468;-63
2021/01/10 11:37:35;;;;;;;7.75;6.72;;;;;;;1.16;58.82;99012.64;1769855;81;21395;-64
2021/01/10 11:40:03;;;;;;;7.22;6.03;;;;;;;1.12;59.08;99003.02;1739270;82;21392;-62
2021/01/10 11:42:34;;;;;;;9.28;6.95;;;;;;;1.11;58.85;99000.83;1769418;81;21019;-63
2021/01/10 11:45:02;;;;;;;8.78;6.62;;;;;;;1.10;59.05;99004.83;1739165;82;20915;-64
2021/01/10 11:47:30;;;;;;;7.95;5.30;;;;;;;1.07;59.17;98996.49;1769817;81;21363;-64
2021/01/10 11:49:59;;;;;;;6.92;6.03;;;;;;;1.05;59.38;99003.60;1739283;82;21441;-64